Terminal Aerodrome Forecast
Issued by NWS

Home | Current Version | Previous Version | Text Only | Print | Product List | Glossary Off
Versions: 1 2 3 4 5 6 7 8 9 10 11 12 13 14 15 16 17 18 19

000
FTUS43 KBIS 291100
TAFJMS
TAF
KJMS 291138Z 2912/3012 03010KT 5SM BR OVC004
     FM291600 08011KT P6SM SCT006 BKN015
     FM292100 11011KT P6SM SCT015 BKN025 OVC035=

USA.gov is the U.S. government's official web portal to all federal, state and local government web resources and services.